Time;durP1;ratioP1;P1;durP2;ratioP2;P2;SDS_P1;SDS_P2;PMS_P1;PMS_P2;Temp;Humidity;BMP_temperature;BMP_pressure;BME280_temperature;BME280_humidity;BME280_pressure;Samples;Min_cycle;Max_cycle;Signal;HPM_P1;HPM_P2
2022/01/08 00:00:16;;;;;;;;;;;;;;;12.46;63.61;100634.13;1057436;28;637;-59
2022/01/08 00:01:09;;;;;;;;;;;;;;;12.47;63.04;100627.81;1057787;28;853;-59
2022/01/08 00:01:59;;;;;;;;;;;;;;;12.46;63.30;100620.75;1057885;28;833;-57
2022/01/08 00:02:51;;;;;;;;;;;;;;;12.45;63.04;100627.91;1057431;28;686;-58
2022/01/08 00:03:41;;;;;;;;;;;;;;;12.44;63.05;100626.22;1057568;28;669;-59
2022/01/08 00:04:32;;;;;;;;;;;;;;;12.44;62.85;100623.53;1057382;28;734;-57
2022/01/08 00:05:22;;;;;;;;;;;;;;;12.43;62.84;100629.00;1057145;28;866;-59
2022/01/08 00:06:13;;;;;;;;;;;;;;;12.43;63.61;100629.00;1053448;28;711;-59
2022/01/08 00:07:03;;;;;;;;;;;;;;;12.44;63.04;100633.38;1053956;28;621;-59
2022/01/08 00:07:54;;;;;;;;;;;;;;;12.42;63.49;100625.47;1058338;28;779;-59
2022/01/08 00:08:45;;;;;;;;;;;;;;;12.43;63.83;100623.66;1057814;28;789;-58
2022/01/08 00:09:35;;;;;;;;;;;;;;;12.41;62.94;100631.78;1057090;28;879;-59
2022/01/08 00:10:26;;;;;;;;;;;;;;;12.42;63.39;100625.47;1053337;28;700;-59
2022/01/08 00:11:20;;;;;;;;;;;;;;;12.42;63.78;100628.16;1053349;28;796;-59
2022/01/08 00:12:12;;;;;;;;;;;;;;;12.42;63.55;100625.47;1057723;28;722;-58
2022/01/08 00:13:05;;;;;;;;;;;;;;;12.42;63.11;100627.28;1057967;28;629;-60
2022/01/08 00:13:55;;;;;;;;;;;;;;;12.42;63.39;100628.16;1057679;28;1898;-58
2022/01/08 00:14:46;;;;;;;;;;;;;;;12.42;63.83;100627.28;1057367;28;723;-58
2022/01/08 00:15:37;;;;;;;;;;;;;;;12.41;63.50;100633.59;1057813;28;852;-58
2022/01/08 00:16:27;;;;;;;;;;;;;;;12.40;63.17;100631.91;1057685;28;713;-57
2022/01/08 00:17:19;;;;;;;;;;;;;;;12.41;63.88;100630.94;1057594;28;2055;-58
2022/01/08 00:18:09;;;;;;;;;;;;;;;12.40;63.82;100637.25;1054183;28;854;-57
2022/01/08 00:19:00;;;;;;;;;;;;;;;12.41;63.48;100638.94;1054192;28;719;-58
2022/01/08 00:19:50;;;;;;;;;;;;;;;12.41;63.91;100636.28;1054076;28;847;-59
2022/01/08 00:20:40;;;;;;;;;;;;;;;12.40;63.38;100631.91;1054061;28;819;-58
2022/01/08 00:21:31;;;;;;;;;;;;;;;12.40;63.81;100631.91;1054904;28;717;-59
2022/01/08 00:22:21;;;;;;;;;;;;;;;12.40;63.42;100634.56;1054157;28;786;-59
2022/01/08 00:23:12;;;;;;;;;;;;;;;12.39;62.74;100632.88;1054594;28;764;-59
2022/01/08 00:24:02;;;;;;;;;;;;;;;12.39;63.18;100633.72;1054726;28;955;-58
2022/01/08 00:24:53;;;;;;;;;;;;;;;12.40;63.68;100634.56;1054759;28;700;-59
2022/01/08 00:25:43;;;;;;;;;;;;;;;12.38;63.05;100632.00;1054027;28;1999;-59
2022/01/08 00:26:33;;;;;;;;;;;;;;;12.39;63.11;100638.22;1053895;28;994;-61
2022/01/08 00:27:24;;;;;;;;;;;;;;;12.39;62.87;100627.53;1054813;28;755;-59
2022/01/08 00:28:14;;;;;;;;;;;;;;;12.38;63.73;100631.16;1054720;28;931;-60
2022/01/08 00:29:05;;;;;;;;;;;;;;;12.37;63.55;100635.66;1057475;28;1944;-59
2022/01/08 00:29:55;;;;;;;;;;;;;;;12.39;63.46;100638.22;1057613;28;822;-58
2022/01/08 00:30:47;;;;;;;;;;;;;;;12.38;63.24;100636.50;1057211;28;821;-58
2022/01/08 00:31:38;;;;;;;;;;;;;;;12.38;63.84;100636.50;1057877;28;756;-59
2022/01/08 00:32:28;;;;;;;;;;;;;;;12.37;62.79;100641.00;1057677;28;935;-59
2022/01/08 00:33:19;;;;;;;;;;;;;;;12.36;62.88;100635.78;1057931;28;727;-58
2022/01/08 00:34:09;;;;;;;;;;;;;;;12.36;63.44;100644.63;1057681;28;1894;-59
2022/01/08 00:34:59;;;;;;;;;;;;;;;12.36;62.92;100644.63;1057732;28;703;-59
2022/01/08 00:35:50;;;;;;;;;;;;;;;12.36;63.71;100649.16;1056875;28;1984;-59
2022/01/08 00:36:40;;;;;;;;;;;;;;;12.35;63.57;100653.66;1054026;28;952;-59
2022/01/08 00:37:31;;;;;;;;;;;;;;;12.37;63.62;100650.84;1054722;28;625;-59
2022/01/08 00:38:21;;;;;;;;;;;;;;;12.38;63.53;100652.53;1054790;28;829;-59
2022/01/08 00:39:12;;;;;;;;;;;;;;;12.36;63.26;100647.31;1054697;28;715;-59
2022/01/08 00:40:02;;;;;;;;;;;;;;;12.35;62.94;100644.78;1054755;28;672;-59
2022/01/08 00:40:52;;;;;;;;;;;;;;;12.37;63.39;100650.84;1054645;28;766;-58
2022/01/08 00:41:43;;;;;;;;;;;;;;;12.36;63.25;100655.31;1054593;28;1456;-59
2022/01/08 00:42:33;;;;;;;;;;;;;;;12.35;63.92;100648.31;1054732;28;780;-59
2022/01/08 00:43:23;;;;;;;;;;;;;;;12.34;63.19;100654.63;1053606;28;644;-59
2022/01/08 00:44:16;;;;;;;;;;;;;;;12.33;63.19;100650.22;1054731;28;660;-59
2022/01/08 00:45:06;;;;;;;;;;;;;;;12.35;63.57;100652.78;1053487;28;937;-59
2022/01/08 00:45:57;;;;;;;;;;;;;;;12.34;63.84;100643.94;1058727;28;1690;-59
2022/01/08 00:46:47;;;;;;;;;;;;;;;12.34;63.66;100649.28;1057078;28;715;-59
2022/01/08 00:47:38;;;;;;;;;;;;;;;12.34;63.87;100654.63;1058026;28;1183;-58
2022/01/08 00:48:28;;;;;;;;;;;;;;;12.33;63.67;100655.59;1056957;28;700;-59
2022/01/08 00:49:18;;;;;;;;;;;;;;;12.34;63.53;100659.09;1056964;28;851;-59
2022/01/08 00:50:10;;;;;;;;;;;;;;;12.31;63.79;100657.50;1053611;28;656;-58
2022/01/08 00:51:00;;;;;;;;;;;;;;;12.32;63.12;100653.03;1056561;28;685;-59
2022/01/08 00:51:51;;;;;;;;;;;;;;;12.33;63.17;100654.72;1057681;28;784;-59
2022/01/08 00:52:42;;;;;;;;;;;;;;;12.32;63.79;100648.53;1057707;28;637;-59
2022/01/08 00:53:32;;;;;;;;;;;;;;;12.31;63.25;100657.50;1058077;28;1001;-59
2022/01/08 00:54:23;;;;;;;;;;;;;;;12.32;63.83;100659.22;1053388;28;1342;-59
2022/01/08 00:55:13;;;;;;;;;;;;;;;12.31;62.85;100657.50;1054743;28;946;-59
2022/01/08 00:56:03;;;;;;;;;;;;;;;12.32;63.19;100655.69;1054099;28;657;-59
2022/01/08 00:56:54;;;;;;;;;;;;;;;12.31;63.25;100652.16;1054123;28;785;-59
2022/01/08 00:57:44;;;;;;;;;;;;;;;12.30;63.17;100654.94;1054634;28;926;-59
2022/01/08 00:58:35;;;;;;;;;;;;;;;12.30;63.73;100650.47;1054091;28;798;-59
2022/01/08 00:59:25;;;;;;;;;;;;;;;12.30;63.28;100653.13;1054048;28;797;-59
2022/01/08 01:00:15;;;;;;;;;;;;;;;12.31;62.85;100656.66;1054113;28;696;-59
2022/01/08 01:01:06;;;;;;;;;;;;;;;12.30;63.21;100649.59;1054138;28;822;-59
2022/01/08 01:01:56;;;;;;;;;;;;;;;12.29;62.87;100653.25;1054014;28;811;-59
2022/01/08 01:02:47;;;;;;;;;;;;;;;12.30;63.76;100654.94;1054133;28;955;-59
2022/01/08 01:03:37;;;;;;;;;;;;;;;12.30;63.38;100652.28;1053993;28;678;-59
2022/01/08 01:04:27;;;;;;;;;;;;;;;12.29;63.66;100659.44;1054087;28;605;-59
2022/01/08 01:05:19;;;;;;;;;;;;;;;12.30;62.86;100657.63;1054161;28;684;-59
2022/01/08 01:06:09;;;;;;;;;;;;;;;12.29;63.38;100653.25;1053528;28;1902;-59
2022/01/08 01:07:00;;;;;;;;;;;;;;;12.28;62.88;100654.22;1054038;28;925;-59
2022/01/08 01:07:50;;;;;;;;;;;;;;;12.28;62.83;100656.88;1054375;28;855;-59
2022/01/08 01:08:41;;;;;;;;;;;;;;;12.28;63.51;100656.88;1053522;28;816;-59
2022/01/08 01:09:31;;;;;;;;;;;;;;;12.27;63.85;100682.75;1054660;28;715;-59
2022/01/08 01:10:21;;;;;;;;;;;;;;;12.27;62.89;100685.41;1054079;28;779;-59
2022/01/08 01:11:12;;;;;;;;;;;;;;;12.27;62.74;100687.25;1054116;28;637;-59
2022/01/08 01:12:03;;;;;;;;;;;;;;;12.27;63.75;100689.91;1053900;28;860;-59
2022/01/08 01:12:53;;;;;;;;;;;;;;;12.27;63.85;100689.91;1053412;28;771;-59
2022/01/08 01:13:43;;;;;;;;;;;;;;;12.28;62.96;100691.63;1054083;28;753;-59
2022/01/08 01:14:34;;;;;;;;;;;;;;;12.28;63.48;100686.28;1053403;28;786;-59
2022/01/08 01:15:24;;;;;;;;;;;;;;;12.27;63.63;100681.91;1054049;28;640;-59
2022/01/08 01:16:14;;;;;;;;;;;;;;;12.27;62.69;100672.06;1053876;28;820;-59
2022/01/08 01:17:05;;;;;;;;;;;;;;;12.27;62.93;100671.22;1054157;28;687;-59
2022/01/08 01:17:55;;;;;;;;;;;;;;;12.25;63.10;100665.97;1054118;28;710;-59
2022/01/08 01:18:46;;;;;;;;;;;;;;;12.27;62.77;100671.22;1054018;28;798;-59
2022/01/08 01:19:37;;;;;;;;;;;;;;;12.24;63.42;100666.94;1054018;28;755;-59
2022/01/08 01:20:27;;;;;;;;;;;;;;;12.26;63.39;100677.50;1054006;28;929;-59
2022/01/08 01:21:18;;;;;;;;;;;;;;;12.25;63.17;100673.13;1057184;28;1701;-59
2022/01/08 01:22:09;;;;;;;;;;;;;;;12.24;62.88;100682.97;1058185;28;709;-59
2022/01/08 01:23:15;;;;;;;;;;;;;;;12.23;63.38;100677.75;1054097;28;852;-59
2022/01/08 01:24:12;;;;;;;;;;;;;;;12.22;63.35;100676.88;1052783;28;648;-59
2022/01/08 01:25:05;;;;;;;;;;;;;;;12.22;63.65;100663.53;1053423;28;815;-59
2022/01/08 01:26:00;;;;;;;;;;;;;;;12.22;63.13;100666.19;1053007;28;815;-59
2022/01/08 01:27:58;;;;;;;;;;;;;;;12.23;63.35;100675.06;1054036;28;683;-58
2022/01/08 01:28:57;;;;;;;;;;;;;;;12.23;63.20;100672.41;1052816;28;775;-59
2022/01/08 01:29:56;;;;;;;;;;;;;;;12.23;63.38;100664.38;1053173;28;712;-59
2022/01/08 01:41:19;;;;;;;;;;;;;;;12.20;63.02;100654.78;1054818;28;1820;-59
2022/01/08 01:42:29;;;;;;;;;;;;;;;12.20;63.65;100649.44;1054162;28;686;-59
2022/01/08 01:43:38;;;;;;;;;;;;;;;12.20;63.77;100652.09;1054714;28;848;-59
2022/01/08 01:47:01;;;;;;;;;;;;;;;12.19;63.40;100658.41;1054869;28;680;-59
2022/01/08 01:47:52;;;;;;;;;;;;;;;12.18;63.46;100646.88;1054688;28;1369;-59
2022/01/08 01:48:42;;;;;;;;;;;;;;;12.18;63.20;100645.19;1055294;28;644;-60
2022/01/08 01:49:33;;;;;;;;;;;;;;;12.18;63.12;100650.53;1055219;28;760;-60
2022/01/08 01:50:23;;;;;;;;;;;;;;;12.18;63.60;100646.88;1054908;28;2113;-60
2022/01/08 01:51:14;;;;;;;;;;;;;;;12.18;63.23;100650.53;1054009;28;1664;-59
2022/01/08 01:52:04;;;;;;;;;;;;;;;12.18;63.20;100645.19;1053686;28;855;-59
2022/01/08 01:52:54;;;;;;;;;;;;;;;12.17;63.71;100649.69;1053498;28;824;-59
2022/01/08 01:53:45;;;;;;;;;;;;;;;12.17;63.27;100647.00;1054690;28;763;-59
2022/01/08 01:54:35;;;;;;;;;;;;;;;12.15;63.37;100649.78;1053331;28;1285;-59
2022/01/08 01:55:26;;;;;;;;;;;;;;;12.16;63.11;100647.97;1054231;28;644;-59
2022/01/08 01:56:16;;;;;;;;;;;;;;;12.16;63.80;100648.84;1054724;28;718;-59
2022/01/08 01:57:06;;;;;;;;;;;;;;;12.16;63.67;100642.63;1054127;28;700;-59
2022/01/08 01:57:57;;;;;;;;;;;;;;;12.15;63.64;100647.13;1053643;28;801;-59
2022/01/08 01:58:47;;;;;;;;;;;;;;;12.16;63.39;100646.16;1054074;28;610;-59
2022/01/08 01:59:38;;;;;;;;;;;;;;;12.16;63.30;100639.97;1054682;28;672;-59
2022/01/08 02:00:28;;;;;;;;;;;;;;;12.16;63.11;100653.31;1054739;28;1522;-60
2022/01/08 02:01:19;;;;;;;;;;;;;;;12.15;63.18;100651.63;1055871;27;664;-60
2022/01/08 02:02:09;;;;;;;;;;;;;;;12.15;63.14;100647.13;1053268;28;614;-59
2022/01/08 02:02:59;;;;;;;;;;;;;;;12.15;63.61;100644.44;1053480;28;652;-59
2022/01/08 02:03:50;;;;;;;;;;;;;;;12.15;63.47;100646.28;1054173;28;694;-59
2022/01/08 02:04:40;;;;;;;;;;;;;;;12.14;63.52;100653.44;1054005;28;826;-59
2022/01/08 02:05:31;;;;;;;;;;;;;;;12.14;63.78;100649.91;1054094;28;766;-59
2022/01/08 02:06:21;;;;;;;;;;;;;;;12.12;62.91;100655.38;1055251;28;993;-59
2022/01/08 02:07:12;;;;;;;;;;;;;;;12.13;62.94;100659.75;1053948;28;658;-59
2022/01/08 02:08:02;;;;;;;;;;;;;;;12.12;63.24;100647.34;1054197;28;661;-59
2022/01/08 02:08:52;;;;;;;;;;;;;;;12.13;62.83;100649.06;1054047;28;758;-59
2022/01/08 02:09:43;;;;;;;;;;;;;;;12.13;63.81;100654.41;1053650;28;731;-59
2022/01/08 02:10:34;;;;;;;;;;;;;;;12.12;63.72;100657.19;1054814;28;1897;-59
2022/01/08 02:11:24;;;;;;;;;;;;;;;12.12;63.99;100647.34;1057501;28;1404;-59
2022/01/08 02:12:17;;;;;;;;;;;;;;;12.13;63.68;100657.06;1057713;28;779;-59
2022/01/08 02:13:07;;;;;;;;;;;;;;;12.13;63.54;100654.41;1058364;28;644;-59
2022/01/08 02:13:58;;;;;;;;;;;;;;;12.12;63.21;100652.69;1058317;28;1902;-59
2022/01/08 02:14:49;;;;;;;;;;;;;;;12.12;63.71;100650.03;1057557;28;942;-59
2022/01/08 02:15:42;;;;;;;;;;;;;;;12.13;63.29;100649.06;1058231;28;792;-59
2022/01/08 02:16:32;;;;;;;;;;;;;;;12.12;63.70;100655.38;1058163;28;703;-60
2022/01/08 02:17:23;;;;;;;;;;;;;;;12.12;63.51;100658.03;1058341;28;670;-60
2022/01/08 02:18:13;;;;;;;;;;;;;;;12.11;63.03;100664.34;1057934;28;673;-60
2022/01/08 02:19:03;;;;;;;;;;;;;;;12.12;63.70;100662.53;1057565;28;898;-60
2022/01/08 02:19:54;;;;;;;;;;;;;;;12.12;63.70;100665.19;1058836;28;799;-60
2022/01/08 02:20:44;;;;;;;;;;;;;;;12.11;63.77;100672.34;1054483;28;1766;-60
2022/01/08 02:21:35;;;;;;;;;;;;;;;12.12;63.02;100666.03;1054633;28;716;-60
2022/01/08 02:22:25;;;;;;;;;;;;;;;12.11;63.42;100672.34;1055811;28;1983;-60
2022/01/08 02:23:15;;;;;;;;;;;;;;;12.11;63.76;100675.03;1055057;28;918;-60
2022/01/08 02:24:06;;;;;;;;;;;;;;;12.12;63.00;100679.41;1055189;28;656;-60
2022/01/08 02:24:56;;;;;;;;;;;;;;;12.11;63.72;100672.34;1055203;28;739;-60
2022/01/08 02:25:47;;;;;;;;;;;;;;;12.12;63.30;100678.53;1055277;28;677;-59
2022/01/08 02:26:37;;;;;;;;;;;;;;;12.11;63.92;100680.38;1055169;28;1493;-59
2022/01/08 02:27:27;;;;;;;;;;;;;;;12.09;63.33;100674.28;1055150;28;843;-59
2022/01/08 02:28:18;;;;;;;;;;;;;;;12.10;63.04;100678.66;1055333;28;629;-59
2022/01/08 02:29:08;;;;;;;;;;;;;;;12.10;63.72;100665.31;1054450;28;755;-59
2022/01/08 02:29:59;;;;;;;;;;;;;;;12.10;63.31;100676.00;1055351;28;827;-59
2022/01/08 02:30:49;;;;;;;;;;;;;;;12.10;63.64;100675.13;1055934;27;774;-59
2022/01/08 02:31:39;;;;;;;;;;;;;;;12.10;63.21;100670.66;1053333;28;812;-59
2022/01/08 02:32:31;;;;;;;;;;;;;;;12.10;63.80;100673.31;1054101;28;665;-59
2022/01/08 02:33:21;;;;;;;;;;;;;;;12.10;63.23;100672.47;1050609;28;852;-59
2022/01/08 02:34:12;;;;;;;;;;;;;;;12.10;63.77;100673.31;1049557;28;1943;-59
2022/01/08 02:35:02;;;;;;;;;;;;;;;12.09;63.65;100666.28;1056345;28;1997;-59
2022/01/08 02:35:53;;;;;;;;;;;;;;;12.09;63.03;100668.09;1054449;28;778;-59
2022/01/08 02:36:43;;;;;;;;;;;;;;;12.08;63.58;100664.56;1054625;28;844;-59
2022/01/08 02:37:34;;;;;;;;;;;;;;;12.08;63.83;100672.56;1055105;28;995;-59
2022/01/08 02:38:25;;;;;;;;;;;;;;;12.07;63.79;100664.66;1054589;28;656;-59
2022/01/08 02:39:16;;;;;;;;;;;;;;;12.06;63.66;100661.16;1054054;28;634;-59
2022/01/08 02:40:07;;;;;;;;;;;;;;;12.07;63.88;100665.53;1055121;28;784;-59
2022/01/08 02:41:02;;;;;;;;;;;;;;;12.07;63.44;100665.53;1054632;28;743;-60
2022/01/08 02:41:56;;;;;;;;;;;;;;;12.06;64.06;100674.50;1054426;28;814;-59
2022/01/08 02:42:51;;;;;;;;;;;;;;;12.06;63.56;100671.84;1054523;28;695;-59
2022/01/08 02:43:45;;;;;;;;;;;;;;;12.06;63.68;100679.84;1054468;28;705;-59
2022/01/08 02:44:36;;;;;;;;;;;;;;;12.07;64.06;100680.69;1054515;28;754;-59
2022/01/08 02:45:26;;;;;;;;;;;;;;;12.07;63.20;100672.69;1054634;28;730;-59
2022/01/08 02:46:16;;;;;;;;;;;;;;;12.06;63.76;100669.16;1054504;28;922;-59
2022/01/08 02:47:07;;;;;;;;;;;;;;;12.06;63.49;100674.50;1049857;28;667;-59
2022/01/08 02:47:57;;;;;;;;;;;;;;;12.06;63.32;100676.31;1054381;28;1466;-60
2022/01/08 02:48:48;;;;;;;;;;;;;;;12.05;63.62;100678.13;1053995;28;687;-59
2022/01/08 02:49:38;;;;;;;;;;;;;;;12.06;63.36;100673.66;1054101;28;818;-59
2022/01/08 02:50:28;;;;;;;;;;;;;;;12.04;63.25;100681.78;1054718;28;1772;-60
2022/01/08 02:51:19;;;;;;;;;;;;;;;12.05;63.96;100678.13;1058626;28;653;-59
2022/01/08 02:52:09;;;;;;;;;;;;;;;12.05;63.47;100672.78;1057200;28;798;-60
2022/01/08 02:53:00;;;;;;;;;;;;;;;12.05;63.23;100670.13;1058184;28;917;-59
2022/01/08 02:53:50;;;;;;;;;;;;;;;12.04;63.04;100676.44;1058262;28;790;-59
2022/01/08 02:54:40;;;;;;;;;;;;;;;12.04;63.89;100671.09;1057975;28;1227;-59
2022/01/08 02:55:31;;;;;;;;;;;;;;;12.05;63.66;100671.94;1058226;28;712;-59
2022/01/08 02:56:21;;;;;;;;;;;;;;;12.05;63.27;100682.63;1057863;28;872;-60
2022/01/08 02:57:12;;;;;;;;;;;;;;;12.05;63.07;100680.81;1057503;28;688;-59
2022/01/08 02:58:02;;;;;;;;;;;;;;;12.03;63.27;100682.72;1058611;28;613;-59
2022/01/08 02:58:53;;;;;;;;;;;;;;;12.05;63.24;100682.63;1057107;28;704;-59
2022/01/08 02:59:43;;;;;;;;;;;;;;;12.05;63.29;100677.28;1057387;28;638;-59
2022/01/08 03:00:34;;;;;;;;;;;;;;;12.04;63.84;100680.91;1055814;28;1945;-59
2022/01/08 03:01:24;;;;;;;;;;;;;;;12.04;63.84;100675.56;1055079;28;597;-59
2022/01/08 03:02:14;;;;;;;;;;;;;;;12.03;63.39;100666.72;1055088;28;641;-60
2022/01/08 03:03:05;;;;;;;;;;;;;;;12.03;63.34;100676.53;1053881;28;618;-59
2022/01/08 03:03:56;;;;;;;;;;;;;;;12.04;63.32;100680.91;1055117;28;1126;-59
2022/01/08 03:04:46;;;;;;;;;;;;;;;12.04;63.07;100678.25;1053836;28;853;-59
2022/01/08 03:05:37;;;;;;;;;;;;;;;12.03;63.22;100674.72;1056166;27;718;-59
2022/01/08 03:06:27;;;;;;;;;;;;;;;12.03;63.19;100680.06;1055195;28;672;-59
2022/01/08 03:07:18;;;;;;;;;;;;;;;12.03;63.75;100681.88;1055082;28;621;-59
2022/01/08 03:08:08;;;;;;;;;;;;;;;12.03;63.84;100679.22;1049907;28;646;-59
2022/01/08 03:08:58;;;;;;;;;;;;;;;12.02;63.20;100689.03;1046422;28;821;-60
2022/01/08 03:09:58;;;;;;;;;;;;;;;12.02;63.70;100678.34;1050341;28;696;-59
2022/01/08 03:10:48;;;;;;;;;;;;;;;12.02;63.35;100674.84;1051032;28;1898;-59
2022/01/08 03:11:39;;;;;;;;;;;;;;;12.01;63.12;100665.97;1051389;28;1299;-59
2022/01/08 03:12:30;;;;;;;;;;;;;;;12.01;63.75;100678.47;1051690;28;845;-59
2022/01/08 03:13:20;;;;;;;;;;;;;;;12.02;63.91;100677.50;1053900;28;866;-59
2022/01/08 03:14:10;;;;;;;;;;;;;;;12.00;63.25;100664.25;1054303;28;1917;-59
2022/01/08 03:15:01;;;;;;;;;;;;;;;12.01;62.95;100675.78;1054416;28;1016;-60
2022/01/08 03:15:51;;;;;;;;;;;;;;;12.00;63.39;100680.28;1054393;28;700;-59
2022/01/08 03:16:42;;;;;;;;;;;;;;;12.01;63.24;100673.97;1053292;28;741;-60
2022/01/08 03:17:32;;;;;;;;;;;;;;;12.01;63.97;100678.47;1054244;28;951;-59
2022/01/08 03:18:22;;;;;;;;;;;;;;;12.00;64.12;100672.28;1054481;28;672;-59
2022/01/08 03:19:15;;;;;;;;;;;;;;;12.00;63.14;100674.94;1057540;28;2029;-60
2022/01/08 03:20:07;;;;;;;;;;;;;;;12.00;63.28;100679.47;1058035;28;625;-59
2022/01/08 03:21:04;;;;;;;;;;;;;;;11.99;63.12;100683.94;1056127;28;1933;-59
2022/01/08 03:21:55;;;;;;;;;;;;;;;11.99;63.25;100683.94;1058564;28;780;-60
2022/01/08 03:22:46;;;;;;;;;;;;;;;11.99;63.25;100678.59;1058516;28;746;-59
2022/01/08 03:23:43;;;;;;;;;;;;;;;11.99;63.13;100677.75;1058562;28;815;-59
2022/01/08 03:24:33;;;;;;;;;;;;;;;11.99;63.23;100670.59;1057990;28;815;-59
2022/01/08 03:25:24;;;;;;;;;;;;;;;11.98;63.83;100671.56;1059015;27;879;-60
2022/01/08 03:26:14;;;;;;;;;;;;;;;11.98;63.15;100670.72;1059222;27;605;-59
2022/01/08 03:27:05;;;;;;;;;;;;;;;11.99;63.12;100672.41;1057914;28;728;-59
2022/01/08 03:27:55;;;;;;;;;;;;;;;11.99;63.68;100672.41;1053347;28;845;-59
2022/01/08 03:28:46;;;;;;;;;;;;;;;11.98;63.72;100670.72;1058188;28;804;-59
2022/01/08 03:29:36;;;;;;;;;;;;;;;11.98;64.13;100665.38;1054131;27;762;-59
2022/01/08 03:30:28;;;;;;;;;;;;;;;11.98;63.49;100676.03;1054463;28;673;-59
2022/01/08 03:31:18;;;;;;;;;;;;;;;11.98;63.58;100674.22;1054554;28;707;-59
2022/01/08 03:32:09;;;;;;;;;;;;;;;11.99;64.08;100675.94;1050429;28;839;-58
2022/01/08 03:32:59;;;;;;;;;;;;;;;11.98;63.89;100673.38;1050917;28;745;-59
2022/01/08 03:33:49;;;;;;;;;;;;;;;11.97;63.13;100672.53;1055275;28;698;-60
2022/01/08 03:34:40;;;;;;;;;;;;;;;11.97;63.36;100677.88;1054507;28;751;-60
2022/01/08 03:35:30;;;;;;;;;;;;;;;11.96;63.53;100668.16;1054292;28;654;-57
2022/01/08 03:36:21;;;;;;;;;;;;;;;11.95;63.39;100669.09;1053693;28;871;-57
2022/01/08 03:37:11;;;;;;;;;;;;;;;11.95;63.65;100665.59;1053608;28;658;-57
2022/01/08 03:38:02;;;;;;;;;;;;;;;11.95;63.50;100669.09;1054338;28;846;-58
2022/01/08 03:38:52;;;;;;;;;;;;;;;11.96;63.91;100665.47;1049144;28;1938;-58
2022/01/08 03:39:43;;;;;;;;;;;;;;;11.96;63.86;100669.97;1050403;28;812;-58
2022/01/08 03:40:33;;;;;;;;;;;;;;;11.95;63.76;100677.13;1054076;28;832;-59
2022/01/08 03:41:24;;;;;;;;;;;;;;;11.95;63.83;100674.44;1053008;28;1094;-58
2022/01/08 03:42:14;;;;;;;;;;;;;;;11.94;63.76;100672.75;1053100;28;799;-58
2022/01/08 03:43:04;;;;;;;;;;;;;;;11.95;63.18;100670.94;1057213;28;1076;-59
2022/01/08 03:43:55;;;;;;;;;;;;;;;11.95;63.75;100677.13;1057176;28;732;-59
2022/01/08 03:44:45;;;;;;;;;;;;;;;11.95;63.77;100676.28;1057093;28;712;-58
2022/01/08 03:45:36;;;;;;;;;;;;;;;11.94;63.72;100680.75;1057389;28;840;-60
2022/01/08 03:46:28;;;;;;;;;;;;;;;11.93;63.92;100681.72;1057493;28;893;-60
2022/01/08 03:49:25;;;;;;;;;;;;;;;11.96;64.16;100677.97;1054331;28;772;-59
2022/01/08 03:50:15;;;;;;;;;;;;;;;11.96;63.30;100678.84;1053026;28;653;-59
2022/01/08 03:51:06;;;;;;;;;;;;;;;11.96;63.26;100681.50;1054836;28;609;-60
2022/01/08 03:51:56;;;;;;;;;;;;;;;11.98;63.55;100676.03;1054788;28;743;-59
2022/01/08 03:52:47;;;;;;;;;;;;;;;11.98;63.71;100682.25;1054516;28;935;-60
2022/01/08 03:53:37;;;;;;;;;;;;;;;11.97;63.92;100683.22;1055904;27;828;-60
2022/01/08 03:54:27;;;;;;;;;;;;;;;11.97;63.56;100677.00;1054238;28;1327;-59
2022/01/08 03:55:18;;;;;;;;;;;;;;;11.96;63.91;100686.84;1054397;28;1682;-59
2022/01/08 03:56:08;;;;;;;;;;;;;;;11.96;63.63;100681.50;1058112;27;1538;-60
2022/01/08 03:56:59;;;;;;;;;;;;;;;11.96;63.55;100686.00;1056573;28;1441;-59
2022/01/08 03:57:49;;;;;;;;;;;;;;;11.94;63.37;100680.75;1056644;28;1703;-60
2022/01/08 03:58:40;;;;;;;;;;;;;;;11.95;63.62;100684.28;1057528;28;1705;-60
2022/01/08 03:59:30;;;;;;;;;;;;;;;11.95;63.90;100681.59;1055817;28;1558;-59
2022/01/08 04:00:20;;;;;;;;;;;;;;;11.94;64.23;100680.75;1056921;28;1564;-59
2022/01/08 04:01:11;;;;;;;;;;;;;;;11.91;63.80;100675.63;1056366;28;1569;-59
2022/01/08 04:02:01;;;;;;;;;;;;;;;11.93;63.64;100673.72;1056963;28;1565;-59
2022/01/08 04:02:53;;;;;;;;;;;;;;;11.94;64.09;100674.56;1054351;28;1558;-59
2022/01/08 04:03:43;;;;;;;;;;;;;;;11.93;63.66;100679.03;1056536;28;1575;-59
2022/01/08 04:04:34;;;;;;;;;;;;;;;11.92;63.64;100680.00;1053938;28;1740;-60
2022/01/08 04:05:24;;;;;;;;;;;;;;;11.92;64.08;100672.00;1055452;28;1505;-60
2022/01/08 04:06:15;;;;;;;;;;;;;;;11.93;63.63;100676.38;1056630;28;1649;-60
2022/01/08 04:07:05;;;;;;;;;;;;;;;11.92;63.94;100676.50;1052195;28;1615;-60
2022/01/08 04:07:55;;;;;;;;;;;;;;;11.92;64.01;100672.00;1049877;28;1539;-60
2022/01/08 04:08:46;;;;;;;;;;;;;;;11.90;64.07;100670.41;1054748;28;1402;-60
2022/01/08 04:09:37;;;;;;;;;;;;;;;11.91;63.90;100666.78;1054590;28;1689;-59
2022/01/08 04:10:27;;;;;;;;;;;;;;;11.91;63.76;100674.78;1056399;28;1585;-59
2022/01/08 04:11:17;;;;;;;;;;;;;;;11.90;63.63;100676.59;1054375;28;1549;-60
2022/01/08 04:12:08;;;;;;;;;;;;;;;11.91;64.04;100674.78;1057024;28;1569;-60
2022/01/08 04:13:05;;;;;;;;;;;;;;;11.89;64.23;100680.22;1055324;28;1752;-60
2022/01/08 04:13:56;;;;;;;;;;;;;;;11.89;64.13;100676.72;1056862;28;1478;-60
2022/01/08 04:15:01;;;;;;;;;;;;;;;11.90;63.89;100683.75;1056941;28;1562;-60
2022/01/08 04:15:55;;;;;;;;;;;;;;;11.89;63.65;100682.91;1056370;28;1692;-60
2022/01/08 04:16:50;;;;;;;;;;;;;;;11.89;64.28;100674.88;1055675;28;1776;-60
2022/01/08 04:17:40;;;;;;;;;;;;;;;11.90;63.88;100678.41;1054484;28;1659;-60
2022/01/08 04:18:31;;;;;;;;;;;;;;;11.88;64.40;100678.53;1055685;28;1541;-60
2022/01/08 04:19:21;;;;;;;;;;;;;;;11.88;64.15;100670.50;1056834;28;1501;-60
2022/01/08 04:20:11;;;;;;;;;;;;;;;11.88;63.59;100685.69;1058056;28;1432;-60
2022/01/08 04:22:13;;;;;;;;;;;;;;;11.88;63.63;100681.19;1058016;27;1450;-59
2022/01/08 04:23:03;;;;;;;;;;;;;;;11.89;64.00;100676.72;1056273;28;1468;-59
2022/01/08 04:23:54;;;;;;;;;;;;;;;11.88;63.89;100685.69;1056796;28;1617;-60
2022/01/08 04:24:44;;;;;;;;;;;;;;;11.88;63.44;100681.19;1057018;27;1574;-60
2022/01/08 04:25:35;;;;;;;;;;;;;;;11.88;63.98;100681.19;1056755;28;1553;-60
2022/01/08 04:26:25;;;;;;;;;;;;;;;11.89;63.60;100690.06;1054052;28;1416;-59
2022/01/08 04:27:15;;;;;;;;;;;;;;;11.88;63.70;100686.53;1053000;28;1589;-59
2022/01/08 04:28:06;;;;;;;;;;;;;;;11.88;63.97;100689.19;1050285;28;2058;-59
2022/01/08 04:28:56;;;;;;;;;;;;;;;11.88;64.14;100683.88;1054020;28;707;-59
2022/01/08 04:29:47;;;;;;;;;;;;;;;11.89;64.13;100684.72;1054226;28;729;-59
2022/01/08 04:30:37;;;;;;;;;;;;;;;11.88;63.91;100689.19;1054149;28;884;-59
2022/01/08 04:31:27;;;;;;;;;;;;;;;11.88;63.42;100697.22;1054033;28;727;-59
2022/01/08 04:32:18;;;;;;;;;;;;;;;11.88;63.91;100696.34;1053526;28;819;-59
2022/01/08 04:33:08;;;;;;;;;;;;;;;11.87;63.91;100692.84;1053708;28;766;-59
2022/01/08 04:33:59;;;;;;;;;;;;;;;11.87;63.69;100694.66;1054143;28;711;-59
2022/01/08 04:34:49;;;;;;;;;;;;;;;11.87;64.13;100698.19;1054133;28;775;-59
2022/01/08 04:35:39;;;;;;;;;;;;;;;11.86;63.94;100698.28;1054145;28;808;-59
2022/01/08 04:36:30;;;;;;;;;;;;;;;11.85;64.09;100694.75;1054013;28;800;-59
2022/01/08 04:37:20;;;;;;;;;;;;;;;11.84;63.37;100693.06;1054717;28;775;-58
2022/01/08 04:38:12;;;;;;;;;;;;;;;11.83;63.50;100688.69;1054039;28;644;-59
2022/01/08 04:39:02;;;;;;;;;;;;;;;11.83;64.22;100691.34;1054156;28;637;-58
2022/01/08 04:39:52;;;;;;;;;;;;;;;11.83;64.11;100691.34;1055345;28;688;-59
2022/01/08 04:40:43;;;;;;;;;;;;;;;11.83;64.38;100691.34;1055235;28;838;-59
2022/01/08 04:41:33;;;;;;;;;;;;;;;11.83;63.98;100692.19;1055344;27;1038;-59
2022/01/08 04:42:24;;;;;;;;;;;;;;;11.83;63.71;100688.69;1053929;28;749;-58
2022/01/08 04:43:14;;;;;;;;;;;;;;;11.83;63.79;100694.00;1054131;28;673;-58
2022/01/08 04:44:07;;;;;;;;;;;;;;;11.82;63.52;100692.34;1050334;28;696;-58
2022/01/08 04:44:57;;;;;;;;;;;;;;;11.83;63.61;100694.00;1051239;28;800;-59
2022/01/08 04:45:49;;;;;;;;;;;;;;;11.82;63.52;100695.00;1055041;28;800;-58